createdAt,value
2022-12-06T00:00:16.315Z,0.00
2022-12-06T00:01:16.270Z,0.00
2022-12-06T00:02:16.302Z,0.00
2022-12-06T00:03:16.273Z,0.00
2022-12-06T00:04:16.207Z,0.00
2022-12-06T00:05:16.215Z,0.00
2022-12-06T00:06:16.194Z,0.00
2022-12-06T00:07:16.178Z,0.00
2022-12-06T00:08:16.245Z,0.00
2022-12-06T00:09:16.165Z,0.00
2022-12-06T00:10:16.152Z,0.00
2022-12-06T00:11:16.155Z,0.00
2022-12-06T00:12:16.135Z,0.00
2022-12-06T00:13:16.247Z,0.00
2022-12-06T00:14:16.106Z,0.00
2022-12-06T00:15:16.128Z,0.00
2022-12-06T00:16:16.186Z,0.00
2022-12-06T00:17:16.088Z,0.00
2022-12-06T00:18:16.062Z,0.00
2022-12-06T00:19:16.066Z,0.00
2022-12-06T00:20:16.057Z,0.00
2022-12-06T00:21:16.031Z,0.00
2022-12-06T00:22:16.038Z,0.00
2022-12-06T00:23:16.006Z,0.00
2022-12-06T00:24:15.996Z,0.00
2022-12-06T00:25:15.996Z,0.00
2022-12-06T00:26:15.966Z,0.00
2022-12-06T00:27:15.987Z,0.00
2022-12-06T00:28:15.958Z,0.00
2022-12-06T00:29:15.944Z,0.00
2022-12-06T00:30:15.938Z,0.00
2022-12-06T00:31:15.983Z,0.00
2022-12-06T00:32:19.429Z,0.00
2022-12-06T00:33:15.907Z,0.00
2022-12-06T00:34:15.896Z,0.00
2022-12-06T00:35:15.897Z,0.00
2022-12-06T00:36:15.866Z,0.00
2022-12-06T00:37:15.887Z,0.00
2022-12-06T00:38:15.857Z,0.00
2022-12-06T00:39:15.846Z,0.00
2022-12-06T00:40:15.855Z,0.00
2022-12-06T00:41:15.807Z,0.00
2022-12-06T00:42:15.819Z,0.00
2022-12-06T00:43:15.798Z,0.00
2022-12-06T00:44:15.794Z,0.00
2022-12-06T00:45:15.779Z,0.00
2022-12-06T00:46:15.816Z,0.00
2022-12-06T00:47:15.767Z,0.00
2022-12-06T00:48:15.740Z,0.00
2022-12-06T00:49:15.740Z,0.00
2022-12-06T00:50:15.741Z,0.00
2022-12-06T00:51:15.719Z,0.00
2022-12-06T00:52:15.697Z,0.00
2022-12-06T00:53:15.708Z,0.00
2022-12-06T00:54:15.686Z,0.00
2022-12-06T00:55:15.658Z,0.00
2022-12-06T00:56:15.669Z,0.00
2022-12-06T00:57:15.650Z,0.00
2022-12-06T00:58:15.639Z,0.00
2022-12-06T00:59:15.649Z,0.00
2022-12-06T01:00:15.613Z,0.00
2022-12-06T01:01:15.713Z,0.00
2022-12-06T01:02:15.590Z,0.00
2022-12-06T01:03:15.626Z,0.00
2022-12-06T01:04:15.582Z,0.00
2022-12-06T01:05:15.569Z,0.00
2022-12-06T01:06:15.554Z,0.00
2022-12-06T01:07:15.530Z,0.00
2022-12-06T01:08:16.635Z,0.00
2022-12-06T01:09:15.522Z,0.00
2022-12-06T01:10:15.512Z,0.00
2022-12-06T01:11:15.530Z,0.00
2022-12-06T01:12:15.490Z,0.00
2022-12-06T01:13:15.482Z,0.00
2022-12-06T01:14:15.492Z,0.00
2022-12-06T01:15:15.462Z,0.00
2022-12-06T01:16:15.484Z,0.00
2022-12-06T01:17:15.430Z,0.00
2022-12-06T01:18:15.432Z,0.00
2022-12-06T01:19:15.424Z,0.00
2022-12-06T01:20:15.412Z,0.00
2022-12-06T01:21:15.412Z,0.00
2022-12-06T01:22:15.401Z,0.00
2022-12-06T01:23:15.384Z,0.00
2022-12-06T01:24:15.372Z,0.00
2022-12-06T01:25:15.352Z,0.00
2022-12-06T01:26:15.342Z,0.00
2022-12-06T01:27:15.323Z,0.00
2022-12-06T01:28:15.323Z,0.00
2022-12-06T01:29:15.325Z,0.00
2022-12-06T01:30:15.302Z,0.00
2022-12-06T01:31:15.352Z,0.00
2022-12-06T01:32:15.271Z,0.00
2022-12-06T01:33:15.263Z,0.00
2022-12-06T01:34:15.264Z,0.00
2022-12-06T01:35:15.253Z,0.00
2022-12-06T01:36:15.242Z,0.00
2022-12-06T01:37:15.210Z,0.00
2022-12-06T01:38:15.206Z,0.00
2022-12-06T01:39:15.213Z,0.00
2022-12-06T01:40:15.193Z,0.00
2022-12-06T01:41:15.187Z,0.00
2022-12-06T01:42:15.185Z,0.00
2022-12-06T01:43:15.154Z,0.00
2022-12-06T01:44:21.102Z,0.00
2022-12-06T01:45:16.144Z,0.00
2022-12-06T01:46:15.183Z,0.00
2022-12-06T01:47:15.115Z,0.00
2022-12-06T01:48:15.123Z,0.00
2022-12-06T01:49:15.086Z,0.00
2022-12-06T01:50:15.079Z,0.00
2022-12-06T01:51:15.098Z,0.00
2022-12-06T01:52:15.064Z,0.00
2022-12-06T01:53:15.054Z,0.00
2022-12-06T01:54:15.044Z,0.00
2022-12-06T01:55:15.038Z,0.00
2022-12-06T01:56:15.045Z,0.00
2022-12-06T01:57:15.027Z,0.00
2022-12-06T01:58:15.005Z,0.00
2022-12-06T01:59:14.985Z,0.00
2022-12-06T02:00:14.975Z,0.00
2022-12-06T02:01:15.026Z,0.00
2022-12-06T02:02:15.158Z,0.00
2022-12-06T02:03:14.948Z,0.00
2022-12-06T02:04:14.945Z,0.00
2022-12-06T02:05:14.905Z,0.00
2022-12-06T02:06:14.906Z,0.00
2022-12-06T02:07:14.896Z,0.00
2022-12-06T02:08:15.010Z,0.00
2022-12-06T02:09:14.878Z,0.00
2022-12-06T02:10:14.867Z,0.00
2022-12-06T02:11:14.845Z,0.00
2022-12-06T02:12:14.844Z,0.00
2022-12-06T02:13:14.839Z,0.00
2022-12-06T02:14:14.839Z,0.00
2022-12-06T02:15:14.818Z,0.00
2022-12-06T02:16:14.805Z,0.00
2022-12-06T02:17:14.862Z,0.00
2022-12-06T02:18:14.777Z,0.00
2022-12-06T02:19:14.777Z,0.00
2022-12-06T02:20:14.767Z,0.00
2022-12-06T02:21:14.766Z,0.00
2022-12-06T02:22:14.738Z,0.00
2022-12-06T02:23:14.727Z,0.00
2022-12-06T02:24:14.727Z,0.00
2022-12-06T02:25:14.718Z,0.00
2022-12-06T02:26:14.710Z,0.00
2022-12-06T02:27:14.698Z,0.00
2022-12-06T02:28:14.699Z,0.00
2022-12-06T02:29:14.657Z,0.00
2022-12-06T02:30:14.648Z,0.00
2022-12-06T02:31:14.689Z,0.00
2022-12-06T02:32:14.649Z,0.00
2022-12-06T02:33:14.639Z,0.00
2022-12-06T02:34:14.608Z,0.00
2022-12-06T02:35:14.607Z,0.00
2022-12-06T02:36:14.599Z,0.00
2022-12-06T02:37:14.576Z,0.00
2022-12-06T02:38:14.580Z,0.00
2022-12-06T02:39:14.548Z,0.00
2022-12-06T02:40:14.540Z,0.00
2022-12-06T02:41:14.538Z,0.00
2022-12-06T02:42:14.560Z,0.00
2022-12-06T02:43:14.509Z,0.00
2022-12-06T02:44:14.508Z,0.00
2022-12-06T02:45:14.508Z,0.00
2022-12-06T02:46:14.569Z,0.00
2022-12-06T02:47:14.494Z,0.00
2022-12-06T02:48:14.495Z,0.00
2022-12-06T02:49:14.487Z,0.00
2022-12-06T02:50:14.466Z,0.00
2022-12-06T02:51:14.446Z,0.00
2022-12-06T02:52:14.446Z,0.00
2022-12-06T02:53:14.447Z,0.00
2022-12-06T02:54:14.423Z,0.00
2022-12-06T02:55:14.418Z,0.00
2022-12-06T02:56:14.397Z,0.00
2022-12-06T02:57:14.385Z,0.00
2022-12-06T02:58:14.375Z,0.00
2022-12-06T02:59:14.367Z,0.00
2022-12-06T03:00:14.356Z,0.00
2022-12-06T03:01:14.396Z,0.00
2022-12-06T03:02:14.384Z,0.00
2022-12-06T03:03:14.317Z,0.00
2022-12-06T03:04:14.314Z,0.00
2022-12-06T03:05:14.298Z,0.00
2022-12-06T03:06:14.295Z,0.00
2022-12-06T03:07:14.297Z,0.00
2022-12-06T03:08:14.350Z,0.00
2022-12-06T03:09:14.278Z,0.00
2022-12-06T03:10:14.267Z,0.00
2022-12-06T03:11:14.243Z,0.00
2022-12-06T03:12:14.229Z,0.00
2022-12-06T03:13:14.220Z,0.00
2022-12-06T03:14:14.933Z,0.00
2022-12-06T03:15:14.208Z,0.00
2022-12-06T03:16:14.335Z,0.00
2022-12-06T03:17:14.169Z,0.00
2022-12-06T03:18:14.167Z,0.00
2022-12-06T03:19:14.149Z,0.00
2022-12-06T03:20:14.147Z,0.00
2022-12-06T03:21:14.139Z,0.00
2022-12-06T03:22:14.126Z,0.00
2022-12-06T03:23:14.109Z,0.00
2022-12-06T03:24:14.099Z,0.00
2022-12-06T03:25:14.093Z,0.00
2022-12-06T03:26:14.098Z,0.00
2022-12-06T03:27:14.079Z,0.00
2022-12-06T03:28:14.060Z,0.00
2022-12-06T03:29:14.046Z,0.00
2022-12-06T03:30:14.043Z,0.00
2022-12-06T03:31:14.060Z,0.00
2022-12-06T03:32:14.043Z,0.00
2022-12-06T03:33:13.999Z,0.00
2022-12-06T03:34:14.011Z,0.00
2022-12-06T03:35:13.994Z,0.00
2022-12-06T03:36:13.970Z,0.00
2022-12-06T03:37:13.970Z,0.00
2022-12-06T03:38:13.980Z,0.00
2022-12-06T03:39:13.939Z,0.00
2022-12-06T03:40:13.933Z,0.00
2022-12-06T03:41:13.913Z,0.00
2022-12-06T03:42:13.912Z,0.00
2022-12-06T03:43:13.911Z,0.00
2022-12-06T03:44:13.907Z,0.00
2022-12-06T03:45:13.896Z,0.00
2022-12-06T03:46:14.002Z,0.00
2022-12-06T03:47:15.988Z,0.00
2022-12-06T03:48:13.861Z,0.00
2022-12-06T03:49:13.838Z,0.00
2022-12-06T03:50:13.821Z,0.00
2022-12-06T03:51:13.808Z,0.00
2022-12-06T03:52:13.804Z,0.00
2022-12-06T03:53:13.811Z,0.00
2022-12-06T03:54:13.779Z,0.00
2022-12-06T03:55:13.763Z,0.00
2022-12-06T03:56:13.780Z,0.00
2022-12-06T03:57:13.742Z,0.00
2022-12-06T03:58:13.752Z,0.00
2022-12-06T03:59:13.724Z,0.00
2022-12-06T04:00:13.712Z,0.00
2022-12-06T04:01:13.703Z,0.00
2022-12-06T04:02:13.890Z,0.00
2022-12-06T04:03:13.692Z,0.00
2022-12-06T04:04:13.706Z,0.00
2022-12-06T04:05:13.667Z,0.00
2022-12-06T04:06:13.670Z,0.00
2022-12-06T04:07:13.632Z,0.00
2022-12-06T04:08:13.692Z,0.00
2022-12-06T04:09:13.615Z,0.00
2022-12-06T04:10:13.613Z,0.00
2022-12-06T04:11:13.593Z,0.00
2022-12-06T04:12:13.666Z,0.00
2022-12-06T04:13:19.311Z,0.00
2022-12-06T04:14:14.574Z,0.00
2022-12-06T04:15:13.552Z,0.00
2022-12-06T04:16:13.583Z,0.00
2022-12-06T04:17:13.544Z,0.00
2022-12-06T04:18:14.010Z,0.00
2022-12-06T04:19:13.503Z,0.00
2022-12-06T04:20:13.503Z,0.00
2022-12-06T04:21:13.503Z,0.00
2022-12-06T04:22:13.484Z,0.00
2022-12-06T04:23:13.485Z,0.00
2022-12-06T04:24:13.454Z,0.00
2022-12-06T04:25:13.444Z,0.00
2022-12-06T04:26:13.434Z,0.00
2022-12-06T04:27:13.425Z,0.00
2022-12-06T04:28:13.424Z,0.00
2022-12-06T04:29:13.396Z,0.00
2022-12-06T04:30:13.394Z,0.00
2022-12-06T04:31:17.178Z,0.00
2022-12-06T04:32:14.375Z,0.00
2022-12-06T04:33:13.366Z,0.00
2022-12-06T04:34:13.364Z,0.00
2022-12-06T04:35:13.335Z,0.00
2022-12-06T04:36:13.326Z,0.00
2022-12-06T04:37:13.314Z,0.00
2022-12-06T04:38:13.305Z,0.00
2022-12-06T04:39:19.172Z,0.00
2022-12-06T04:40:14.284Z,0.00
2022-12-06T04:41:13.279Z,0.00
2022-12-06T04:42:13.265Z,0.00
2022-12-06T04:43:13.245Z,0.00
2022-12-06T04:44:13.265Z,0.00
2022-12-06T04:45:13.234Z,0.00
2022-12-06T04:46:13.247Z,0.00
2022-12-06T04:47:13.213Z,0.00
2022-12-06T04:48:13.197Z,0.00
2022-12-06T04:49:13.189Z,0.00
2022-12-06T04:50:13.196Z,0.00
2022-12-06T04:51:13.333Z,0.00
2022-12-06T04:52:13.160Z,0.00
2022-12-06T04:53:13.150Z,0.00
2022-12-06T04:54:13.128Z,0.00
2022-12-06T04:55:13.137Z,0.00
2022-12-06T04:56:13.106Z,0.00
2022-12-06T04:57:13.106Z,0.00
2022-12-06T04:58:13.109Z,0.00
2022-12-06T04:59:13.077Z,0.00
2022-12-06T05:00:13.085Z,0.00
2022-12-06T05:01:13.098Z,0.00
2022-12-06T05:02:13.046Z,0.00
2022-12-06T05:03:13.039Z,0.00
2022-12-06T05:04:13.091Z,0.00
2022-12-06T05:05:13.028Z,0.00
2022-12-06T05:06:13.007Z,0.00
2022-12-06T05:07:13.004Z,0.00
2022-12-06T05:08:13.032Z,0.00
2022-12-06T05:09:13.029Z,0.00
2022-12-06T05:10:12.958Z,0.00
2022-12-06T05:11:12.949Z,0.00
2022-12-06T05:12:12.945Z,0.00
2022-12-06T05:13:12.929Z,0.00
2022-12-06T05:14:12.917Z,0.00
2022-12-06T05:15:15.848Z,0.00
2022-12-06T05:16:12.961Z,0.00
2022-12-06T05:17:12.896Z,0.00
2022-12-06T05:18:12.869Z,0.00
2022-12-06T05:19:12.868Z,0.00
2022-12-06T05:20:12.858Z,0.00
2022-12-06T05:21:12.848Z,0.00
2022-12-06T05:22:12.829Z,0.00
2022-12-06T05:23:12.833Z,0.00
2022-12-06T05:24:12.810Z,0.00
2022-12-06T05:25:12.828Z,0.00
2022-12-06T05:26:12.789Z,0.00
2022-12-06T05:27:12.779Z,0.00
2022-12-06T05:28:12.773Z,0.00
2022-12-06T05:29:12.767Z,0.00
2022-12-06T05:30:12.759Z,0.00
2022-12-06T05:31:12.770Z,0.00
2022-12-06T05:32:12.758Z,0.00
2022-12-06T05:33:12.720Z,0.00
2022-12-06T05:34:12.700Z,0.00
2022-12-06T05:35:12.711Z,0.00
2022-12-06T05:36:12.679Z,0.00
2022-12-06T05:37:12.696Z,0.00
2022-12-06T05:38:12.661Z,0.00
2022-12-06T05:39:12.651Z,0.00
2022-12-06T05:40:12.652Z,0.00
2022-12-06T05:41:12.642Z,0.00
2022-12-06T05:42:20.398Z,0.00
2022-12-06T05:43:13.611Z,0.00
2022-12-06T05:44:12.590Z,0.00
2022-12-06T05:45:12.592Z,0.00
2022-12-06T05:46:12.707Z,0.00
2022-12-06T05:47:12.588Z,0.00
2022-12-06T05:48:12.551Z,0.00
2022-12-06T05:49:12.552Z,0.00
2022-12-06T05:50:12.530Z,0.00
2022-12-06T05:51:12.522Z,0.00
2022-12-06T05:52:12.575Z,0.00
2022-12-06T05:53:12.502Z,0.00
2022-12-06T05:54:12.491Z,0.00
2022-12-06T05:55:12.482Z,0.00
2022-12-06T05:56:12.473Z,0.00
2022-12-06T05:57:12.464Z,0.00
2022-12-06T05:58:12.461Z,0.00
2022-12-06T05:59:12.452Z,0.00
2022-12-06T06:00:12.422Z,0.00
2022-12-06T06:01:12.422Z,0.00
2022-12-06T06:02:12.533Z,0.00
2022-12-06T06:03:12.616Z,0.00
2022-12-06T06:04:12.382Z,0.00
2022-12-06T06:05:12.372Z,0.00
2022-12-06T06:06:12.363Z,0.00
2022-12-06T06:07:12.375Z,0.00
2022-12-06T06:08:12.401Z,0.00
2022-12-06T06:09:12.335Z,0.00
2022-12-06T06:10:12.332Z,0.00
2022-12-06T06:11:12.322Z,0.00
2022-12-06T06:12:12.954Z,0.00
2022-12-06T06:13:12.295Z,0.00
2022-12-06T06:14:12.274Z,0.00
2022-12-06T06:15:12.273Z,0.00
2022-12-06T06:16:13.102Z,0.00
2022-12-06T06:17:12.253Z,0.00
2022-12-06T06:18:12.236Z,0.00
2022-12-06T06:19:12.227Z,0.00
2022-12-06T06:20:12.233Z,0.00
2022-12-06T06:21:12.203Z,0.00
2022-12-06T06:22:12.195Z,0.00
2022-12-06T06:23:12.191Z,0.00
2022-12-06T06:24:12.202Z,0.00
2022-12-06T06:25:12.163Z,0.00
2022-12-06T06:26:12.164Z,0.00
2022-12-06T06:27:12.143Z,0.00
2022-12-06T06:28:12.126Z,0.00
2022-12-06T06:29:12.145Z,0.00
2022-12-06T06:30:12.107Z,0.00
2022-12-06T06:31:12.104Z,0.00
2022-12-06T06:32:12.237Z,0.00
2022-12-06T06:33:12.080Z,0.00
2022-12-06T06:34:12.086Z,0.00
2022-12-06T06:35:12.074Z,4.00
2022-12-06T06:36:12.056Z,4.00
2022-12-06T06:37:12.035Z,0.00
2022-12-06T06:38:12.016Z,4.00
2022-12-06T06:39:12.022Z,4.00
2022-12-06T06:40:12.014Z,4.00
2022-12-06T06:41:12.001Z,4.00
2022-12-06T06:42:12.296Z,4.00
2022-12-06T06:43:11.976Z,4.00
2022-12-06T06:44:11.962Z,4.00
2022-12-06T06:45:11.954Z,8.00
2022-12-06T06:46:11.989Z,8.00
2022-12-06T06:47:11.957Z,4.00
2022-12-06T06:48:11.925Z,8.00
2022-12-06T06:49:12.116Z,8.00
2022-12-06T06:50:11.956Z,8.00
2022-12-06T06:51:14.485Z,8.00
2022-12-06T06:52:11.910Z,12.00
2022-12-06T06:53:11.871Z,12.00
2022-12-06T06:54:11.846Z,12.00
2022-12-06T06:55:11.841Z,16.00
2022-12-06T06:56:11.849Z,20.00
2022-12-06T06:57:17.409Z,16.00
2022-12-06T06:58:12.902Z,20.00
2022-12-06T06:59:11.797Z,20.00
2022-12-06T07:00:11.800Z,24.00
2022-12-06T07:01:11.808Z,28.00
2022-12-06T07:02:11.852Z,28.00
2022-12-06T07:03:11.779Z,36.00
2022-12-06T07:04:11.788Z,36.00
2022-12-06T07:05:11.744Z,40.00
2022-12-06T07:06:11.717Z,40.00
2022-12-06T07:07:15.302Z,48.00
2022-12-06T07:08:12.769Z,48.00
2022-12-06T07:09:11.698Z,52.00
2022-12-06T07:10:11.680Z,56.00
2022-12-06T07:11:11.668Z,60.00
2022-12-06T07:12:11.668Z,60.00
2022-12-06T07:13:11.648Z,64.00
2022-12-06T07:14:11.636Z,64.00
2022-12-06T07:15:11.635Z,68.00
2022-12-06T07:16:11.629Z,72.00
2022-12-06T07:17:11.707Z,80.00
2022-12-06T07:18:11.589Z,84.00
2022-12-06T07:19:11.591Z,92.00
2022-12-06T07:20:11.588Z,96.00
2022-12-06T07:21:11.568Z,104.00
2022-12-06T07:22:11.558Z,104.00
2022-12-06T07:23:11.563Z,112.00
2022-12-06T07:24:11.526Z,128.00
2022-12-06T07:25:11.558Z,140.00
2022-12-06T07:26:11.508Z,140.00
2022-12-06T07:27:11.504Z,132.00
2022-12-06T07:28:11.479Z,136.00
2022-12-06T07:29:11.479Z,144.00
2022-12-06T07:30:16.738Z,148.00
2022-12-06T07:31:12.510Z,152.00
2022-12-06T07:32:11.460Z,152.00
2022-12-06T07:33:11.450Z,152.00
2022-12-06T07:34:11.420Z,156.00
2022-12-06T07:35:11.414Z,160.00
2022-12-06T07:36:13.242Z,164.00
2022-12-06T07:37:11.390Z,168.00
2022-12-06T07:38:12.090Z,180.00
2022-12-06T07:39:14.713Z,180.00
2022-12-06T07:40:11.427Z,184.00
2022-12-06T07:41:11.452Z,180.00
2022-12-06T07:42:11.426Z,188.00
2022-12-06T07:43:11.372Z,192.00
2022-12-06T07:44:12.022Z,208.00
2022-12-06T07:45:11.322Z,224.00
2022-12-06T07:46:11.546Z,236.00
2022-12-06T07:47:11.310Z,244.00
2022-12-06T07:48:11.612Z,244.00
2022-12-06T07:49:11.271Z,248.00
2022-12-06T07:50:17.418Z,256.00
2022-12-06T07:51:12.271Z,260.00
2022-12-06T07:52:11.912Z,260.00
2022-12-06T07:53:11.252Z,272.00
2022-12-06T07:54:11.251Z,296.00
2022-12-06T07:55:11.223Z,320.00
2022-12-06T07:56:11.189Z,332.00
2022-12-06T07:57:11.191Z,340.00
2022-12-06T07:58:11.204Z,344.00
2022-12-06T07:59:11.155Z,336.00
2022-12-06T08:00:11.151Z,344.00
2022-12-06T08:01:11.150Z,348.00
2022-12-06T08:02:11.122Z,364.00
2022-12-06T08:03:11.156Z,368.00
2022-12-06T08:04:11.201Z,380.00
2022-12-06T08:05:11.105Z,396.00
2022-12-06T08:06:11.313Z,396.00
2022-12-06T08:07:11.094Z,392.00
2022-12-06T08:08:11.159Z,388.00
2022-12-06T08:09:11.062Z,388.00
2022-12-06T08:10:11.043Z,392.00
2022-12-06T08:11:11.053Z,392.00
2022-12-06T08:12:11.014Z,400.00
2022-12-06T08:13:11.015Z,436.00
2022-12-06T08:14:10.996Z,460.00
2022-12-06T08:15:10.995Z,472.00
2022-12-06T08:16:11.052Z,480.00
2022-12-06T08:17:10.972Z,488.00
2022-12-06T08:18:10.955Z,488.00
2022-12-06T08:19:10.944Z,516.00
2022-12-06T08:20:10.947Z,556.00
2022-12-06T08:21:10.926Z,596.00
2022-12-06T08:22:10.905Z,600.00
2022-12-06T08:23:10.924Z,580.00
2022-12-06T08:24:10.906Z,568.00
2022-12-06T08:25:10.885Z,552.00
2022-12-06T08:26:10.883Z,544.00
2022-12-06T08:27:10.863Z,536.00
2022-12-06T08:28:10.845Z,520.00
2022-12-06T08:29:10.836Z,524.00
2022-12-06T08:30:10.828Z,540.00
2022-12-06T08:31:10.899Z,552.00
2022-12-06T08:32:10.806Z,588.00
2022-12-06T08:33:10.826Z,624.00
2022-12-06T08:34:10.793Z,628.00
2022-12-06T08:35:10.778Z,628.00
2022-12-06T08:36:10.774Z,640.00
2022-12-06T08:37:10.775Z,668.00
2022-12-06T08:38:10.736Z,676.00
2022-12-06T08:39:10.728Z,704.00
2022-12-06T08:40:10.720Z,728.00
2022-12-06T08:41:10.716Z,720.00
2022-12-06T08:42:10.716Z,704.00
2022-12-06T08:43:10.697Z,700.00
2022-12-06T08:44:10.679Z,728.00
2022-12-06T08:45:10.667Z,708.00
2022-12-06T08:46:10.680Z,708.00
2022-12-06T08:47:10.648Z,752.00
2022-12-06T08:48:10.630Z,732.00
2022-12-06T08:49:10.657Z,728.00
2022-12-06T08:50:10.618Z,748.00
2022-12-06T08:51:10.610Z,784.00
2022-12-06T08:52:10.587Z,788.00
2022-12-06T08:53:10.597Z,800.00
2022-12-06T08:54:10.570Z,808.00
2022-12-06T08:55:10.595Z,804.00
2022-12-06T08:56:10.547Z,792.00
2022-12-06T08:57:10.577Z,808.00
2022-12-06T08:58:10.528Z,784.00
2022-12-06T08:59:10.720Z,744.00
2022-12-06T09:00:10.528Z,768.00
2022-12-06T09:01:10.606Z,792.00
2022-12-06T09:02:10.612Z,816.00
2022-12-06T09:03:10.769Z,840.00
2022-12-06T09:04:10.649Z,876.00
2022-12-06T09:05:11.469Z,864.00
2022-12-06T09:06:10.463Z,836.00
2022-12-06T09:07:12.033Z,816.00
2022-12-06T09:08:10.477Z,796.00
2022-12-06T09:09:10.498Z,748.00
2022-12-06T09:10:10.422Z,680.00
2022-12-06T09:11:10.541Z,764.00
2022-12-06T09:12:10.411Z,788.00
2022-12-06T09:13:10.430Z,840.00
2022-12-06T09:14:10.369Z,856.00
2022-12-06T09:15:10.896Z,784.00
2022-12-06T09:16:10.378Z,744.00
2022-12-06T09:17:10.367Z,780.00
2022-12-06T09:18:11.300Z,832.00
2022-12-06T09:19:11.023Z,836.00
2022-12-06T09:20:10.400Z,812.00
2022-12-06T09:21:11.780Z,824.00
2022-12-06T09:22:10.280Z,740.00
2022-12-06T09:23:11.230Z,644.00
2022-12-06T09:24:10.250Z,704.00
2022-12-06T09:25:10.926Z,972.00
2022-12-06T09:26:10.261Z,1108.00
2022-12-06T09:27:11.181Z,1184.00
2022-12-06T09:28:10.262Z,1104.00
2022-12-06T09:29:11.173Z,1124.00
2022-12-06T09:30:10.211Z,1100.00
2022-12-06T09:31:10.937Z,928.00
2022-12-06T09:32:10.188Z,848.00
2022-12-06T09:33:10.183Z,1204.00
2022-12-06T09:34:10.174Z,1344.00
2022-12-06T09:35:15.123Z,1128.00
2022-12-06T09:36:10.128Z,984.00
2022-12-06T09:37:11.081Z,900.00
2022-12-06T09:38:10.149Z,880.00
2022-12-06T09:39:11.061Z,1036.00
2022-12-06T09:40:10.108Z,1216.00
2022-12-06T09:41:11.032Z,984.00
2022-12-06T09:42:10.076Z,1040.00
2022-12-06T09:43:12.013Z,1204.00
2022-12-06T09:44:10.062Z,1184.00
2022-12-06T09:45:10.053Z,1120.00
2022-12-06T09:46:10.090Z,1016.00
2022-12-06T09:47:10.713Z,864.00
2022-12-06T09:48:10.013Z,960.00
2022-12-06T09:49:09.997Z,992.00
2022-12-06T09:50:10.003Z,1212.00
2022-12-06T09:51:10.679Z,1232.00
2022-12-06T09:52:09.954Z,1188.00
2022-12-06T09:53:09.943Z,1064.00
2022-12-06T09:54:09.923Z,980.00
2022-12-06T09:55:09.942Z,920.00
2022-12-06T09:56:09.904Z,984.00
2022-12-06T09:57:09.903Z,1172.00
2022-12-06T09:58:09.884Z,1008.00
2022-12-06T09:59:09.877Z,868.00
2022-12-06T10:00:12.070Z,852.00
2022-12-06T10:01:09.866Z,1016.00
2022-12-06T10:02:09.879Z,1084.00
2022-12-06T10:03:09.907Z,1036.00
2022-12-06T10:04:09.874Z,964.00
2022-12-06T10:05:09.825Z,780.00
2022-12-06T10:06:09.823Z,812.00
2022-12-06T10:07:09.785Z,832.00
2022-12-06T10:08:09.987Z,836.00
2022-12-06T10:09:09.898Z,804.00
2022-12-06T10:10:09.756Z,732.00
2022-12-06T10:11:09.756Z,736.00
2022-12-06T10:12:09.736Z,764.00
2022-12-06T10:13:09.734Z,820.00
2022-12-06T10:14:09.713Z,788.00
2022-12-06T10:15:09.699Z,724.00
2022-12-06T10:16:10.447Z,648.00
2022-12-06T10:17:09.812Z,616.00
2022-12-06T10:18:10.835Z,620.00
2022-12-06T10:19:09.696Z,632.00
2022-12-06T10:20:10.656Z,568.00
2022-12-06T10:21:09.644Z,540.00
2022-12-06T10:22:10.656Z,528.00
2022-12-06T10:23:09.666Z,524.00
2022-12-06T10:24:10.246Z,544.00
2022-12-06T10:25:09.636Z,612.00
2022-12-06T10:26:09.860Z,656.00
2022-12-06T10:27:09.604Z,672.00
2022-12-06T10:28:09.647Z,608.00
2022-12-06T10:29:09.587Z,640.00
2022-12-06T10:30:10.256Z,768.00
2022-12-06T10:31:09.625Z,932.00
2022-12-06T10:32:09.588Z,888.00
2022-12-06T10:33:09.518Z,1008.00
2022-12-06T10:34:09.526Z,1020.00
2022-12-06T10:35:09.487Z,992.00
2022-12-06T10:36:09.485Z,1092.00
2022-12-06T10:37:09.464Z,1060.00
2022-12-06T10:38:09.557Z,1004.00
2022-12-06T10:39:09.466Z,980.00
2022-12-06T10:40:09.444Z,980.00
2022-12-06T10:41:09.417Z,960.00
2022-12-06T10:42:09.433Z,924.00
2022-12-06T10:43:09.397Z,908.00
2022-12-06T10:44:09.398Z,900.00
2022-12-06T10:45:09.419Z,888.00
2022-12-06T10:46:09.675Z,856.00
2022-12-06T10:47:09.399Z,724.00
2022-12-06T10:48:09.349Z,688.00
2022-12-06T10:49:09.337Z,720.00
2022-12-06T10:50:09.328Z,708.00
2022-12-06T10:51:09.338Z,708.00
2022-12-06T10:52:09.314Z,736.00
2022-12-06T10:53:10.243Z,792.00
2022-12-06T10:54:09.287Z,716.00
2022-12-06T10:55:09.268Z,668.00
2022-12-06T10:56:09.308Z,600.00
2022-12-06T10:57:09.250Z,588.00
2022-12-06T10:58:09.239Z,604.00
2022-12-06T10:59:09.228Z,600.00
2022-12-06T11:00:14.921Z,568.00
2022-12-06T11:01:10.354Z,556.00
2022-12-06T11:02:10.194Z,556.00
2022-12-06T11:03:09.210Z,544.00
2022-12-06T11:04:09.194Z,512.00
2022-12-06T11:05:09.160Z,512.00
2022-12-06T11:06:09.159Z,568.00
2022-12-06T11:07:09.143Z,636.00
2022-12-06T11:08:09.195Z,584.00
2022-12-06T11:09:09.321Z,548.00
2022-12-06T11:10:09.120Z,584.00
2022-12-06T11:11:09.100Z,604.00
2022-12-06T11:12:09.090Z,616.00
2022-12-06T11:13:09.079Z,640.00
2022-12-06T11:14:09.098Z,632.00
2022-12-06T11:15:09.060Z,592.00
2022-12-06T11:16:09.088Z,556.00
2022-12-06T11:17:09.071Z,540.00
2022-12-06T11:18:09.030Z,604.00
2022-12-06T11:19:09.011Z,644.00
2022-12-06T11:20:09.021Z,636.00
2022-12-06T11:21:08.992Z,644.00
2022-12-06T11:22:09.004Z,636.00
2022-12-06T11:23:08.971Z,604.00
2022-12-06T11:24:08.971Z,656.00
2022-12-06T11:25:08.954Z,584.00
2022-12-06T11:26:08.942Z,572.00
2022-12-06T11:27:08.929Z,544.00
2022-12-06T11:28:08.931Z,540.00
2022-12-06T11:29:08.935Z,564.00
2022-12-06T11:30:08.920Z,544.00
2022-12-06T11:31:08.961Z,536.00
2022-12-06T11:32:08.881Z,532.00
2022-12-06T11:33:08.870Z,532.00
2022-12-06T11:34:08.864Z,564.00
2022-12-06T11:35:08.872Z,600.00
2022-12-06T11:36:08.843Z,568.00
2022-12-06T11:37:08.823Z,588.00
2022-12-06T11:38:08.820Z,640.00
2022-12-06T11:39:08.813Z,588.00
2022-12-06T11:40:08.802Z,572.00
2022-12-06T11:41:08.785Z,592.00
2022-12-06T11:42:08.812Z,540.00
2022-12-06T11:43:08.762Z,500.00
2022-12-06T11:44:08.757Z,448.00
2022-12-06T11:45:08.762Z,420.00
2022-12-06T11:46:08.788Z,384.00
2022-12-06T11:47:08.811Z,356.00
2022-12-06T11:48:08.724Z,356.00
2022-12-06T11:49:08.694Z,380.00
2022-12-06T11:50:11.047Z,360.00
2022-12-06T11:51:09.671Z,388.00
2022-12-06T11:52:08.667Z,420.00
2022-12-06T11:53:08.654Z,432.00
2022-12-06T11:54:08.644Z,380.00
2022-12-06T11:55:08.653Z,356.00
2022-12-06T11:56:08.624Z,300.00
2022-12-06T11:57:08.624Z,300.00
2022-12-06T11:58:08.605Z,336.00
2022-12-06T11:59:08.584Z,404.00
2022-12-06T12:00:08.584Z,440.00
2022-12-06T12:01:10.078Z,356.00
2022-12-06T12:02:08.604Z,424.00
2022-12-06T12:03:08.617Z,408.00
2022-12-06T12:04:08.565Z,384.00
2022-12-06T12:05:08.528Z,404.00
2022-12-06T12:06:08.518Z,424.00
2022-12-06T12:07:08.524Z,448.00
2022-12-06T12:08:08.518Z,480.00
2022-12-06T12:09:08.486Z,508.00
2022-12-06T12:10:08.475Z,504.00
2022-12-06T12:11:08.456Z,476.00
2022-12-06T12:12:08.479Z,440.00
2022-12-06T12:13:08.451Z,404.00
2022-12-06T12:14:08.426Z,396.00
2022-12-06T12:15:08.552Z,396.00
2022-12-06T12:16:08.412Z,388.00
2022-12-06T12:17:08.396Z,392.00
2022-12-06T12:18:08.386Z,400.00
2022-12-06T12:19:08.389Z,424.00
2022-12-06T12:20:08.366Z,400.00
2022-12-06T12:21:08.359Z,404.00
2022-12-06T12:22:08.349Z,416.00
2022-12-06T12:23:08.347Z,372.00
2022-12-06T12:24:08.349Z,352.00
2022-12-06T12:25:18.888Z,340.00
2022-12-06T12:26:09.297Z,320.00
2022-12-06T12:27:08.290Z,328.00
2022-12-06T12:28:08.277Z,300.00
2022-12-06T12:29:08.287Z,340.00
2022-12-06T12:30:08.257Z,296.00
2022-12-06T12:31:08.258Z,328.00
2022-12-06T12:32:08.293Z,384.00
2022-12-06T12:33:08.234Z,332.00
2022-12-06T12:34:08.220Z,448.00
2022-12-06T12:35:08.205Z,400.00
2022-12-06T12:36:08.197Z,364.00
2022-12-06T12:37:08.186Z,444.00
2022-12-06T12:38:08.188Z,488.00
2022-12-06T12:39:08.169Z,556.00
2022-12-06T12:40:10.793Z,548.00
2022-12-06T12:41:08.139Z,572.00
2022-12-06T12:42:08.140Z,572.00
2022-12-06T12:43:08.140Z,528.00
2022-12-06T12:44:36.090Z,500.00
2022-12-06T12:45:09.097Z,468.00
2022-12-06T12:46:08.131Z,436.00
2022-12-06T12:47:08.109Z,460.00
2022-12-06T12:48:08.069Z,460.00
2022-12-06T12:49:08.050Z,492.00
2022-12-06T12:50:08.048Z,432.00
2022-12-06T12:51:08.029Z,340.00
2022-12-06T12:52:08.019Z,476.00
2022-12-06T12:53:08.020Z,600.00
2022-12-06T12:54:08.006Z,684.00